MDT,Max TemperatureF,Mean TemperatureF,Min TemperatureF,Max Dew PointF,MeanDew PointF,Min DewpointF,Max Humidity, Mean Humidity, Min Humidity, Max Sea Level PressureIn, Mean Sea Level PressureIn, Min Sea Level PressureIn, Max VisibilityMiles, Mean VisibilityMiles, Min VisibilityMiles, Max Wind SpeedMPH, Mean Wind SpeedMPH, Max Gust SpeedMPH,PrecipitationIn, CloudCover, Events, WindDirDegrees
2012-10-1,76,57,38,43,37,30,92,52,18,30.34,30.28,30.23,10,10,7,13,3,29,0.00,2,,360
2012-10-2,79,56,34,40,32,23,92,47,12,30.30,30.18,30.08,10,10,10,21,4,25,0.00,0,,292
2012-10-3,83,58,34,32,24,19,77,34,10,30.19,30.12,30.08,10,10,10,24,6,34,0.00,0,,326
2012-10-4,81,62,42,33,28,22,54,32,13,30.34,30.25,30.19,10,10,7,21,6,29,0.00,0,,179
2012-10-5,79,60,41,39,28,21,67,30,13,30.23,30.17,30.10,10,10,5,24,8,32,0.00,0,,271
2012-10-6,72,56,40,40,38,31,91,65,25,30.26,30.17,30.04,10,10,4,25,10,26,0.00,5,,139
2012-10-7,68,51,33,35,28,16,86,57,14,30.26,30.18,30.09,10,10,10,14,9,,0.00,4,,151
2012-10-8,74,49,24,33,22,14,81,46,11,30.22,30.15,30.07,10,10,10,20,4,28,0.02,0,Thunderstorm,301
2012-10-9,76,55,34,31,25,19,54,31,15,30.20,30.14,30.10,10,10,10,18,6,25,0.00,0,,291
2012-10-10,76,54,32,37,32,24,84,49,16,30.34,30.24,30.14,10,10,5,18,7,25,0.00,0,,160
2012-10-11,79,57,35,49,35,25,81,54,19,30.24,30.20,30.14,10,10,5,21,5,40,0.01,3,Rain-Thunderstorm,207
2012-10-12,71,56,42,54,44,24,91,68,24,30.28,30.16,30.03,10,10,3,34,9,38,0.03,5,Rain-Thunderstorm,154
2012-10-13,62,51,40,33,30,27,69,48,27,30.26,30.15,30.09,10,10,10,29,12,39,0.00,0,,296
2012-10-14,70,49,28,36,31,26,94,55,23,30.40,30.33,30.26,10,10,10,9,3,,0.00,0,,57
2012-10-15,75,50,25,32,27,22,91,49,14,30.33,30.22,30.11,10,10,10,16,4,24,0.00,0,,284
2012-10-16,78,57,36,27,21,15,62,27,9,30.10,30.01,29.90,10,10,10,26,8,34,0.00,0,,302
2012-10-17,75,64,52,32,13,-4,35,16,5,30.07,29.99,29.90,10,10,10,30,17,39,0.00,0,,293
2012-10-18,73,58,44,12,6,-3,19,11,9,30.16,30.12,30.08,10,10,10,24,13,39,0.00,0,,320
2012-10-19,78,54,29,18,14,9,47,23,8,30.22,30.13,30.06,10,10,10,12,5,16,0.00,0,,315
2012-10-20,79,54,28,18,15,11,49,25,9,30.08,30.02,29.95,10,10,10,16,5,25,0.00,0,,309
2012-10-21,73,56,40,36,28,14,55,33,16,30.08,30.02,29.98,10,10,10,23,8,30,0.00,0,,277
2012-10-22,73,54,34,32,27,22,65,36,15,30.11,30.06,30.01,10,10,10,18,6,26,0.00,0,,245
2012-10-23,77,60,42,30,24,19,56,28,12,30.11,30.06,30.01,10,10,5,17,9,22,0.00,0,,240
2012-10-24,76,58,40,27,22,17,52,27,11,30.05,29.98,29.85,10,10,7,28,9,34,0.00,0,,247
2012-10-25,60,49,35,26,14,5,65,26,12,30.25,30.11,29.96,10,10,10,22,10,36,0.00,0,,292
2012-10-26,49,32,15,27,21,11,87,60,30,30.38,30.32,30.25,10,10,10,13,4,17,0.00,2,,138
2012-10-27,62,36,11,21,13,6,78,42,15,30.32,30.20,30.10,10,10,10,15,4,23,0.00,0,,300
2012-10-28,69,46,24,19,12,5,45,26,14,30.25,30.20,30.14,10,10,10,14,5,17,0.00,0,,307
2012-10-29,72,48,25,22,15,10,52,28,12,30.31,30.24,30.18,10,10,10,23,6,30,0.00,0,,311
2012-10-30,72,50,29,20,13,8,43,25,12,30.27,30.21,30.16,10,10,10,12,5,16,0.00,0,,4
2012-10-31,73,48,22,17,9,2,48,28,10,30.28,30.22,30.17,10,10,10,9,4,,0.00,0,,3